sensor_id;sensor_type;location;lat;lon;timestamp;temperature;humidity
70708;SHT30;58277;47.316;18.908;2023-06-26T00:00:37;19.35;70.35
70708;SHT30;58277;47.316;18.908;2023-06-26T00:03:00;19.28;70.50
70708;SHT30;58277;47.316;18.908;2023-06-26T00:05:23;19.23;70.54
70708;SHT30;58277;47.316;18.908;2023-06-26T00:07:46;19.26;70.64
70708;SHT30;58277;47.316;18.908;2023-06-26T00:10:09;19.34;70.60
70708;SHT30;58277;47.316;18.908;2023-06-26T00:12:32;19.41;70.32
70708;SHT30;58277;47.316;18.908;2023-06-26T00:14:55;19.43;70.41
70708;SHT30;58277;47.316;18.908;2023-06-26T00:17:18;19.50;70.05
70708;SHT30;58277;47.316;18.908;2023-06-26T00:19:41;19.49;69.92
70708;SHT30;58277;47.316;18.908;2023-06-26T00:22:04;19.37;70.33
70708;SHT30;58277;47.316;18.908;2023-06-26T00:24:26;19.31;70.35
70708;SHT30;58277;47.316;18.908;2023-06-26T00:26:49;19.23;70.65
70708;SHT30;58277;47.316;18.908;2023-06-26T00:29:12;19.16;71.14
70708;SHT30;58277;47.316;18.908;2023-06-26T00:31:35;19.14;70.93
70708;SHT30;58277;47.316;18.908;2023-06-26T00:33:58;19.10;71.08
70708;SHT30;58277;47.316;18.908;2023-06-26T00:36:21;19.07;71.35
70708;SHT30;58277;47.316;18.908;2023-06-26T00:38:45;18.99;71.56
70708;SHT30;58277;47.316;18.908;2023-06-26T00:41:08;19.00;71.66
70708;SHT30;58277;47.316;18.908;2023-06-26T00:43:35;19.09;71.57
70708;SHT30;58277;47.316;18.908;2023-06-26T00:45:58;19.02;71.69
70708;SHT30;58277;47.316;18.908;2023-06-26T00:48:21;19.03;71.68
70708;SHT30;58277;47.316;18.908;2023-06-26T00:50:46;19.00;71.69
70708;SHT30;58277;47.316;18.908;2023-06-26T00:53:09;19.03;71.70
70708;SHT30;58277;47.316;18.908;2023-06-26T00:55:33;19.07;71.57
70708;SHT30;58277;47.316;18.908;2023-06-26T00:57:57;19.07;71.47
70708;SHT30;58277;47.316;18.908;2023-06-26T01:00:23;19.03;71.42
70708;SHT30;58277;47.316;18.908;2023-06-26T01:02:47;18.95;71.54
70708;SHT30;58277;47.316;18.908;2023-06-26T01:05:10;18.98;71.59
70708;SHT30;58277;47.316;18.908;2023-06-26T01:07:36;18.92;71.62
70708;SHT30;58277;47.316;18.908;2023-06-26T01:10:00;18.92;71.60
70708;SHT30;58277;47.316;18.908;2023-06-26T01:12:23;18.86;71.67
70708;SHT30;58277;47.316;18.908;2023-06-26T01:14:46;18.89;71.54
70708;SHT30;58277;47.316;18.908;2023-06-26T01:17:09;18.89;71.44
70708;SHT30;58277;47.316;18.908;2023-06-26T01:19:40;18.86;71.63
70708;SHT30;58277;47.316;18.908;2023-06-26T01:25:11;18.86;71.84
70708;SHT30;58277;47.316;18.908;2023-06-26T01:27:37;18.85;71.97
70708;SHT30;58277;47.316;18.908;2023-06-26T01:30:02;18.72;72.31
70708;SHT30;58277;47.316;18.908;2023-06-26T01:32:27;18.71;72.45
70708;SHT30;58277;47.316;18.908;2023-06-26T01:34:51;18.69;72.44
70708;SHT30;58277;47.316;18.908;2023-06-26T01:37:15;18.59;72.63
70708;SHT30;58277;47.316;18.908;2023-06-26T01:39:37;18.61;72.65
70708;SHT30;58277;47.316;18.908;2023-06-26T01:42:00;18.58;72.41
70708;SHT30;58277;47.316;18.908;2023-06-26T01:44:27;18.58;72.47
70708;SHT30;58277;47.316;18.908;2023-06-26T01:52:19;18.52;72.54
70708;SHT30;58277;47.316;18.908;2023-06-26T01:54:54;18.49;72.45
70708;SHT30;58277;47.316;18.908;2023-06-26T01:57:18;18.47;72.39
70708;SHT30;58277;47.316;18.908;2023-06-26T01:59:42;18.45;72.46
70708;SHT30;58277;47.316;18.908;2023-06-26T02:02:07;18.44;72.39
70708;SHT30;58277;47.316;18.908;2023-06-26T02:04:32;18.44;72.34
70708;SHT30;58277;47.316;18.908;2023-06-26T02:06:55;18.45;72.23
70708;SHT30;58277;47.316;18.908;2023-06-26T02:09:17;18.45;72.77
70708;SHT30;58277;47.316;18.908;2023-06-26T02:11:40;18.45;72.36
70708;SHT30;58277;47.316;18.908;2023-06-26T02:14:03;18.47;72.41
70708;SHT30;58277;47.316;18.908;2023-06-26T02:16:25;18.52;72.54
70708;SHT30;58277;47.316;18.908;2023-06-26T02:18:48;18.49;72.40
70708;SHT30;58277;47.316;18.908;2023-06-26T02:21:11;18.49;72.64
70708;SHT30;58277;47.316;18.908;2023-06-26T02:23:34;18.51;72.71
70708;SHT30;58277;47.316;18.908;2023-06-26T02:25:56;18.48;72.82
70708;SHT30;58277;47.316;18.908;2023-06-26T02:28:19;18.43;72.78
70708;SHT30;58277;47.316;18.908;2023-06-26T02:30:42;18.45;73.16
70708;SHT30;58277;47.316;18.908;2023-06-26T02:33:05;18.40;73.42
70708;SHT30;58277;47.316;18.908;2023-06-26T02:35:28;18.36;73.37
70708;SHT30;58277;47.316;18.908;2023-06-26T02:37:50;18.28;74.02
70708;SHT30;58277;47.316;18.908;2023-06-26T02:40:13;18.21;74.09
70708;SHT30;58277;47.316;18.908;2023-06-26T02:42:37;18.17;74.27
70708;SHT30;58277;47.316;18.908;2023-06-26T02:45:00;18.11;74.84
70708;SHT30;58277;47.316;18.908;2023-06-26T02:47:25;18.03;75.03
70708;SHT30;58277;47.316;18.908;2023-06-26T02:49:48;18.13;74.66
70708;SHT30;58277;47.316;18.908;2023-06-26T02:52:10;18.14;74.72
70708;SHT30;58277;47.316;18.908;2023-06-26T02:54:33;18.17;74.69
70708;SHT30;58277;47.316;18.908;2023-06-26T02:56:59;18.20;74.14
70708;SHT30;58277;47.316;18.908;2023-06-26T02:59:24;18.26;73.80
70708;SHT30;58277;47.316;18.908;2023-06-26T03:01:48;18.23;73.78
70708;SHT30;58277;47.316;18.908;2023-06-26T03:04:10;18.33;73.48
70708;SHT30;58277;47.316;18.908;2023-06-26T03:06:33;18.33;73.85
70708;SHT30;58277;47.316;18.908;2023-06-26T03:08:56;18.37;74.22
70708;SHT30;58277;47.316;18.908;2023-06-26T03:11:19;18.28;74.05
70708;SHT30;58277;47.316;18.908;2023-06-26T03:13:41;18.26;74.17
70708;SHT30;58277;47.316;18.908;2023-06-26T03:16:04;18.28;74.16
70708;SHT30;58277;47.316;18.908;2023-06-26T03:18:27;18.23;74.52
70708;SHT30;58277;47.316;18.908;2023-06-26T03:20:52;18.28;74.20
70708;SHT30;58277;47.316;18.908;2023-06-26T03:23:16;18.24;74.50
70708;SHT30;58277;47.316;18.908;2023-06-26T03:25:39;18.30;74.24
70708;SHT30;58277;47.316;18.908;2023-06-26T03:28:31;18.31;73.97
70708;SHT30;58277;47.316;18.908;2023-06-26T03:30:54;18.38;74.26
70708;SHT30;58277;47.316;18.908;2023-06-26T03:33:17;18.31;73.76
70708;SHT30;58277;47.316;18.908;2023-06-26T03:35:40;18.47;73.86
70708;SHT30;58277;47.316;18.908;2023-06-26T03:38:05;18.23;74.48
70708;SHT30;58277;47.316;18.908;2023-06-26T03:40:28;18.10;74.97
70708;SHT30;58277;47.316;18.908;2023-06-26T03:42:51;17.97;75.84
70708;SHT30;58277;47.316;18.908;2023-06-26T03:45:14;17.99;75.48
70708;SHT30;58277;47.316;18.908;2023-06-26T03:47:38;18.01;74.88
70708;SHT30;58277;47.316;18.908;2023-06-26T03:50:00;18.28;74.95
70708;SHT30;58277;47.316;18.908;2023-06-26T03:52:23;18.65;74.03
70708;SHT30;58277;47.316;18.908;2023-06-26T03:54:46;18.82;73.68
70708;SHT30;58277;47.316;18.908;2023-06-26T03:57:32;18.58;72.92
70708;SHT30;58277;47.316;18.908;2023-06-26T04:00:15;18.89;73.98
70708;SHT30;58277;47.316;18.908;2023-06-26T04:02:39;18.99;72.92
70708;SHT30;58277;47.316;18.908;2023-06-26T04:05:02;19.14;72.13
70708;SHT30;58277;47.316;18.908;2023-06-26T04:07:26;19.16;72.08
70708;SHT30;58277;47.316;18.908;2023-06-26T04:09:50;19.00;72.65
70708;SHT30;58277;47.316;18.908;2023-06-26T04:12:13;19.07;72.52
70708;SHT30;58277;47.316;18.908;2023-06-26T04:14:36;19.13;72.92
70708;SHT30;58277;47.316;18.908;2023-06-26T04:16:59;19.22;72.50
70708;SHT30;58277;47.316;18.908;2023-06-26T04:19:24;19.64;72.72
70708;SHT30;58277;47.316;18.908;2023-06-26T04:21:47;19.88;71.34
70708;SHT30;58277;47.316;18.908;2023-06-26T04:24:09;20.19;70.11
70708;SHT30;58277;47.316;18.908;2023-06-26T04:26:36;20.02;69.72
70708;SHT30;58277;47.316;18.908;2023-06-26T04:29:00;20.04;70.22
70708;SHT30;58277;47.316;18.908;2023-06-26T04:31:22;20.17;69.00
70708;SHT30;58277;47.316;18.908;2023-06-26T04:33:45;20.19;69.61
70708;SHT30;58277;47.316;18.908;2023-06-26T04:36:13;20.29;69.37
70708;SHT30;58277;47.316;18.908;2023-06-26T04:38:36;20.37;69.51
70708;SHT30;58277;47.316;18.908;2023-06-26T04:40:59;20.27;69.64
70708;SHT30;58277;47.316;18.908;2023-06-26T04:43:22;20.30;69.61
70708;SHT30;58277;47.316;18.908;2023-06-26T04:45:45;20.43;68.90
70708;SHT30;58277;47.316;18.908;2023-06-26T04:48:08;20.56;68.37
70708;SHT30;58277;47.316;18.908;2023-06-26T04:50:31;20.63;68.96
70708;SHT30;58277;47.316;18.908;2023-06-26T04:52:56;20.70;68.64
70708;SHT30;58277;47.316;18.908;2023-06-26T04:55:19;20.74;68.31
70708;SHT30;58277;47.316;18.908;2023-06-26T04:57:43;20.75;68.13
70708;SHT30;58277;47.316;18.908;2023-06-26T05:00:06;20.71;68.94
70708;SHT30;58277;47.316;18.908;2023-06-26T05:02:33;21.03;67.98
70708;SHT30;58277;47.316;18.908;2023-06-26T05:04:55;21.06;68.44
70708;SHT30;58277;47.316;18.908;2023-06-26T05:07:18;20.94;68.14
70708;SHT30;58277;47.316;18.908;2023-06-26T05:09:41;21.01;68.26
70708;SHT30;58277;47.316;18.908;2023-06-26T05:12:04;21.11;67.79
70708;SHT30;58277;47.316;18.908;2023-06-26T05:14:27;21.21;67.37
70708;SHT30;58277;47.316;18.908;2023-06-26T05:16:49;21.49;67.19
70708;SHT30;58277;47.316;18.908;2023-06-26T05:19:12;21.76;66.94
70708;SHT30;58277;47.316;18.908;2023-06-26T05:21:35;21.97;65.89
70708;SHT30;58277;47.316;18.908;2023-06-26T05:23:58;22.09;65.36
70708;SHT30;58277;47.316;18.908;2023-06-26T05:26:22;22.28;64.97
70708;SHT30;58277;47.316;18.908;2023-06-26T05:28:45;22.19;64.85
70708;SHT30;58277;47.316;18.908;2023-06-26T05:31:11;22.41;64.81
70708;SHT30;58277;47.316;18.908;2023-06-26T05:33:35;22.60;64.57
70708;SHT30;58277;47.316;18.908;2023-06-26T05:36:00;22.56;64.37
70708;SHT30;58277;47.316;18.908;2023-06-26T05:38:23;22.63;63.60
70708;SHT30;58277;47.316;18.908;2023-06-26T05:40:46;22.76;63.82
70708;SHT30;58277;47.316;18.908;2023-06-26T05:43:09;22.86;63.70
70708;SHT30;58277;47.316;18.908;2023-06-26T05:45:32;22.94;63.41
70708;SHT30;58277;47.316;18.908;2023-06-26T05:47:54;23.12;63.22
70708;SHT30;58277;47.316;18.908;2023-06-26T05:50:18;23.12;63.36
70708;SHT30;58277;47.316;18.908;2023-06-26T05:52:42;23.17;62.52
70708;SHT30;58277;47.316;18.908;2023-06-26T05:55:06;23.29;63.48
70708;SHT30;58277;47.316;18.908;2023-06-26T05:57:30;23.31;61.90
70708;SHT30;58277;47.316;18.908;2023-06-26T05:59:54;23.49;61.61
70708;SHT30;58277;47.316;18.908;2023-06-26T06:02:16;23.59;61.88
70708;SHT30;58277;47.316;18.908;2023-06-26T06:04:39;23.44;61.97
70708;SHT30;58277;47.316;18.908;2023-06-26T06:07:02;23.55;62.08
70708;SHT30;58277;47.316;18.908;2023-06-26T06:09:25;23.69;62.79
70708;SHT30;58277;47.316;18.908;2023-06-26T06:11:47;23.75;61.49
70708;SHT30;58277;47.316;18.908;2023-06-26T06:14:10;23.85;60.64
70708;SHT30;58277;47.316;18.908;2023-06-26T06:16:33;24.18;60.27
70708;SHT30;58277;47.316;18.908;2023-06-26T06:18:55;24.28;59.29
70708;SHT30;58277;47.316;18.908;2023-06-26T06:21:18;24.12;59.41
70708;SHT30;58277;47.316;18.908;2023-06-26T06:23:41;24.12;60.62
70708;SHT30;58277;47.316;18.908;2023-06-26T06:26:03;24.25;59.58
70708;SHT30;58277;47.316;18.908;2023-06-26T06:28:26;24.33;60.28
70708;SHT30;58277;47.316;18.908;2023-06-26T06:30:49;24.33;60.10
70708;SHT30;58277;47.316;18.908;2023-06-26T06:33:13;24.00;58.50
70708;SHT30;58277;47.316;18.908;2023-06-26T06:35:36;24.10;59.50
70708;SHT30;58277;47.316;18.908;2023-06-26T06:37:58;24.06;59.88
70708;SHT30;58277;47.316;18.908;2023-06-26T06:40:21;24.31;57.78
70708;SHT30;58277;47.316;18.908;2023-06-26T06:42:45;24.55;57.22
70708;SHT30;58277;47.316;18.908;2023-06-26T06:45:09;24.40;57.45
70708;SHT30;58277;47.316;18.908;2023-06-26T06:47:32;24.40;57.32
70708;SHT30;58277;47.316;18.908;2023-06-26T06:49:55;24.44;59.22
70708;SHT30;58277;47.316;18.908;2023-06-26T06:52:18;24.58;60.09
70708;SHT30;58277;47.316;18.908;2023-06-26T06:54:57;24.78;59.36
70708;SHT30;58277;47.316;18.908;2023-06-26T06:57:27;25.10;58.19
70708;SHT30;58277;47.316;18.908;2023-06-26T06:59:50;25.08;58.04
70708;SHT30;58277;47.316;18.908;2023-06-26T07:02:13;25.02;57.46
70708;SHT30;58277;47.316;18.908;2023-06-26T07:04:36;24.79;57.31
70708;SHT30;58277;47.316;18.908;2023-06-26T07:06:59;24.92;57.19
70708;SHT30;58277;47.316;18.908;2023-06-26T07:09:21;25.34;57.66
70708;SHT30;58277;47.316;18.908;2023-06-26T07:11:44;25.68;56.37
70708;SHT30;58277;47.316;18.908;2023-06-26T07:14:07;25.73;57.58
70708;SHT30;58277;47.316;18.908;2023-06-26T07:16:29;25.64;54.93
70708;SHT30;58277;47.316;18.908;2023-06-26T07:18:52;25.26;56.40
70708;SHT30;58277;47.316;18.908;2023-06-26T07:21:15;24.71;56.06
70708;SHT30;58277;47.316;18.908;2023-06-26T07:23:38;25.12;55.91
70708;SHT30;58277;47.316;18.908;2023-06-26T07:26:00;26.28;51.80
70708;SHT30;58277;47.316;18.908;2023-06-26T07:28:23;27.26;49.50
70708;SHT30;58277;47.316;18.908;2023-06-26T07:30:46;26.77;51.41
70708;SHT30;58277;47.316;18.908;2023-06-26T07:33:09;27.05;51.02
70708;SHT30;58277;47.316;18.908;2023-06-26T07:35:33;26.56;51.58
70708;SHT30;58277;47.316;18.908;2023-06-26T07:37:55;26.16;52.89
70708;SHT30;58277;47.316;18.908;2023-06-26T07:40:18;25.63;54.97
70708;SHT30;58277;47.316;18.908;2023-06-26T07:42:41;26.09;53.50
70708;SHT30;58277;47.316;18.908;2023-06-26T07:45:04;26.68;52.44
70708;SHT30;58277;47.316;18.908;2023-06-26T07:47:32;26.47;51.38
70708;SHT30;58277;47.316;18.908;2023-06-26T07:49:55;26.08;53.44
70708;SHT30;58277;47.316;18.908;2023-06-26T07:52:19;25.98;52.00
70708;SHT30;58277;47.316;18.908;2023-06-26T07:54:41;26.12;53.99
70708;SHT30;58277;47.316;18.908;2023-06-26T07:57:05;26.19;54.22
70708;SHT30;58277;47.316;18.908;2023-06-26T07:59:31;26.11;51.36
70708;SHT30;58277;47.316;18.908;2023-06-26T08:01:56;26.37;52.22
70708;SHT30;58277;47.316;18.908;2023-06-26T08:04:20;26.25;51.66
70708;SHT30;58277;47.316;18.908;2023-06-26T08:06:43;26.20;50.61
70708;SHT30;58277;47.316;18.908;2023-06-26T08:09:07;26.40;50.84
70708;SHT30;58277;47.316;18.908;2023-06-26T08:11:33;26.28;52.34
70708;SHT30;58277;47.316;18.908;2023-06-26T08:13:56;25.88;53.07
70708;SHT30;58277;47.316;18.908;2023-06-26T08:16:19;25.96;53.15
70708;SHT30;58277;47.316;18.908;2023-06-26T08:18:42;26.19;51.60
70708;SHT30;58277;47.316;18.908;2023-06-26T08:21:04;26.22;51.40
70708;SHT30;58277;47.316;18.908;2023-06-26T08:23:29;26.37;51.25
70708;SHT30;58277;47.316;18.908;2023-06-26T08:25:51;26.50;50.97
70708;SHT30;58277;47.316;18.908;2023-06-26T08:28:14;26.73;50.71
70708;SHT30;58277;47.316;18.908;2023-06-26T08:30:36;27.01;50.26
70708;SHT30;58277;47.316;18.908;2023-06-26T08:33:00;27.21;48.66
70708;SHT30;58277;47.316;18.908;2023-06-26T08:35:22;27.14;49.16
70708;SHT30;58277;47.316;18.908;2023-06-26T08:37:45;27.12;47.94
70708;SHT30;58277;47.316;18.908;2023-06-26T08:40:08;27.19;49.20
70708;SHT30;58277;47.316;18.908;2023-06-26T08:42:33;26.95;49.44
70708;SHT30;58277;47.316;18.908;2023-06-26T08:44:56;27.01;48.90
70708;SHT30;58277;47.316;18.908;2023-06-26T08:47:26;26.71;47.77
70708;SHT30;58277;47.316;18.908;2023-06-26T08:50:08;26.30;49.84
70708;SHT30;58277;47.316;18.908;2023-06-26T08:52:37;26.70;49.63
70708;SHT30;58277;47.316;18.908;2023-06-26T08:55:07;26.98;48.92
70708;SHT30;58277;47.316;18.908;2023-06-26T08:57:32;27.08;48.33
70708;SHT30;58277;47.316;18.908;2023-06-26T08:59:55;27.39;48.61
70708;SHT30;58277;47.316;18.908;2023-06-26T09:02:18;27.50;47.30
70708;SHT30;58277;47.316;18.908;2023-06-26T09:04:41;27.77;46.98
70708;SHT30;58277;47.316;18.908;2023-06-26T09:07:04;28.01;47.03
70708;SHT30;58277;47.316;18.908;2023-06-26T09:09:28;27.31;48.95
70708;SHT30;58277;47.316;18.908;2023-06-26T09:11:51;27.46;48.27
70708;SHT30;58277;47.316;18.908;2023-06-26T09:14:13;27.46;46.89
70708;SHT30;58277;47.316;18.908;2023-06-26T09:16:40;27.83;48.98
70708;SHT30;58277;47.316;18.908;2023-06-26T09:19:09;27.62;47.97
70708;SHT30;58277;47.316;18.908;2023-06-26T09:21:33;27.62;47.27
70708;SHT30;58277;47.316;18.908;2023-06-26T09:23:56;27.64;47.07
70708;SHT30;58277;47.316;18.908;2023-06-26T09:26:19;27.80;47.16
70708;SHT30;58277;47.316;18.908;2023-06-26T09:28:43;28.07;47.15
70708;SHT30;58277;47.316;18.908;2023-06-26T09:31:07;28.21;46.30
70708;SHT30;58277;47.316;18.908;2023-06-26T09:33:37;27.76;46.97
70708;SHT30;58277;47.316;18.908;2023-06-26T09:36:00;27.62;46.50
70708;SHT30;58277;47.316;18.908;2023-06-26T09:38:23;28.05;47.20
70708;SHT30;58277;47.316;18.908;2023-06-26T09:40:46;28.27;46.48
70708;SHT30;58277;47.316;18.908;2023-06-26T09:43:09;28.51;46.80
70708;SHT30;58277;47.316;18.908;2023-06-26T09:45:35;28.65;44.89
70708;SHT30;58277;47.316;18.908;2023-06-26T09:48:02;28.73;43.43
70708;SHT30;58277;47.316;18.908;2023-06-26T09:50:25;28.31;44.47
70708;SHT30;58277;47.316;18.908;2023-06-26T09:52:51;28.02;45.54
70708;SHT30;58277;47.316;18.908;2023-06-26T09:55:15;28.12;45.53
70708;SHT30;58277;47.316;18.908;2023-06-26T09:57:39;27.89;45.78
70708;SHT30;58277;47.316;18.908;2023-06-26T10:00:02;28.05;46.87
70708;SHT30;58277;47.316;18.908;2023-06-26T10:02:33;27.76;46.73
70708;SHT30;58277;47.316;18.908;2023-06-26T10:04:56;27.89;47.45
70708;SHT30;58277;47.316;18.908;2023-06-26T10:07:20;28.14;46.15
70708;SHT30;58277;47.316;18.908;2023-06-26T10:09:44;28.19;46.37
70708;SHT30;58277;47.316;18.908;2023-06-26T10:12:28;27.91;45.85
70708;SHT30;58277;47.316;18.908;2023-06-26T10:14:52;27.71;47.01
70708;SHT30;58277;47.316;18.908;2023-06-26T10:17:17;27.84;47.79
70708;SHT30;58277;47.316;18.908;2023-06-26T10:19:44;27.87;46.66
70708;SHT30;58277;47.316;18.908;2023-06-26T10:22:07;28.02;47.63
70708;SHT30;58277;47.316;18.908;2023-06-26T10:24:33;28.05;47.87
70708;SHT30;58277;47.316;18.908;2023-06-26T10:27:03;28.28;45.22
70708;SHT30;58277;47.316;18.908;2023-06-26T10:29:29;28.22;44.97
70708;SHT30;58277;47.316;18.908;2023-06-26T10:31:55;28.32;43.15
70708;SHT30;58277;47.316;18.908;2023-06-26T10:34:19;28.34;43.93
70708;SHT30;58277;47.316;18.908;2023-06-26T10:36:42;28.90;45.65
70708;SHT30;58277;47.316;18.908;2023-06-26T10:39:06;29.30;44.74
70708;SHT30;58277;47.316;18.908;2023-06-26T10:41:36;28.32;43.57
70708;SHT30;58277;47.316;18.908;2023-06-26T10:44:16;28.17;44.11
70708;SHT30;58277;47.316;18.908;2023-06-26T10:49:12;28.27;44.79
70708;SHT30;58277;47.316;18.908;2023-06-26T10:51:35;28.48;44.67
70708;SHT30;58277;47.316;18.908;2023-06-26T10:53:58;28.89;43.75
70708;SHT30;58277;47.316;18.908;2023-06-26T10:56:21;29.18;42.21
70708;SHT30;58277;47.316;18.908;2023-06-26T10:58:43;29.11;42.73
70708;SHT30;58277;47.316;18.908;2023-06-26T11:03:37;28.70;44.32
70708;SHT30;58277;47.316;18.908;2023-06-26T11:06:20;28.70;46.35
70708;SHT30;58277;47.316;18.908;2023-06-26T11:11:55;28.72;43.50
70708;SHT30;58277;47.316;18.908;2023-06-26T11:14:22;28.67;45.26
70708;SHT30;58277;47.316;18.908;2023-06-26T11:16:45;28.35;44.58
70708;SHT30;58277;47.316;18.908;2023-06-26T11:19:09;28.35;44.56
70708;SHT30;58277;47.316;18.908;2023-06-26T11:21:32;28.42;43.02
70708;SHT30;58277;47.316;18.908;2023-06-26T11:23:56;28.56;43.11
70708;SHT30;58277;47.316;18.908;2023-06-26T11:26:23;28.97;43.53
70708;SHT30;58277;47.316;18.908;2023-06-26T11:28:47;29.06;40.01
70708;SHT30;58277;47.316;18.908;2023-06-26T11:31:35;29.28;41.09
70708;SHT30;58277;47.316;18.908;2023-06-26T11:34:00;29.45;43.05
70708;SHT30;58277;47.316;18.908;2023-06-26T11:36:27;29.47;43.76
70708;SHT30;58277;47.316;18.908;2023-06-26T11:38:53;29.61;42.18
70708;SHT30;58277;47.316;18.908;2023-06-26T11:41:17;29.80;42.64
70708;SHT30;58277;47.316;18.908;2023-06-26T11:43:40;29.34;41.47
70708;SHT30;58277;47.316;18.908;2023-06-26T11:46:02;29.21;41.84
70708;SHT30;58277;47.316;18.908;2023-06-26T11:48:26;29.07;42.17
70708;SHT30;58277;47.316;18.908;2023-06-26T11:50:52;29.03;41.77
70708;SHT30;58277;47.316;18.908;2023-06-26T11:53:15;29.03;44.59
70708;SHT30;58277;47.316;18.908;2023-06-26T11:55:41;28.66;43.45
70708;SHT30;58277;47.316;18.908;2023-06-26T11:58:05;28.83;41.58
70708;SHT30;58277;47.316;18.908;2023-06-26T12:00:27;29.08;40.85
70708;SHT30;58277;47.316;18.908;2023-06-26T12:02:50;29.23;41.96
70708;SHT30;58277;47.316;18.908;2023-06-26T12:05:15;28.94;40.58
70708;SHT30;58277;47.316;18.908;2023-06-26T12:07:39;28.56;40.95
70708;SHT30;58277;47.316;18.908;2023-06-26T12:10:04;28.38;42.07
70708;SHT30;58277;47.316;18.908;2023-06-26T12:12:27;28.34;42.49
70708;SHT30;58277;47.316;18.908;2023-06-26T12:14:53;28.56;41.05
70708;SHT30;58277;47.316;18.908;2023-06-26T12:17:16;28.66;41.22
70708;SHT30;58277;47.316;18.908;2023-06-26T12:19:45;28.59;40.71
70708;SHT30;58277;47.316;18.908;2023-06-26T12:22:10;28.79;42.51
70708;SHT30;58277;47.316;18.908;2023-06-26T12:24:36;28.42;42.01
70708;SHT30;58277;47.316;18.908;2023-06-26T12:26:59;28.70;43.29
70708;SHT30;58277;47.316;18.908;2023-06-26T12:29:28;28.96;43.15
70708;SHT30;58277;47.316;18.908;2023-06-26T12:31:52;29.31;42.30
70708;SHT30;58277;47.316;18.908;2023-06-26T12:34:17;29.58;41.60
70708;SHT30;58277;47.316;18.908;2023-06-26T12:36:41;29.59;40.06
70708;SHT30;58277;47.316;18.908;2023-06-26T12:39:04;29.52;41.63
70708;SHT30;58277;47.316;18.908;2023-06-26T12:41:27;29.39;41.36
70708;SHT30;58277;47.316;18.908;2023-06-26T12:43:55;29.65;41.68
70708;SHT30;58277;47.316;18.908;2023-06-26T12:46:18;29.41;39.28
70708;SHT30;58277;47.316;18.908;2023-06-26T12:48:42;29.52;39.35
70708;SHT30;58277;47.316;18.908;2023-06-26T12:51:10;29.37;40.61
70708;SHT30;58277;47.316;18.908;2023-06-26T12:53:33;29.37;41.73
70708;SHT30;58277;47.316;18.908;2023-06-26T12:55:58;29.15;41.85
70708;SHT30;58277;47.316;18.908;2023-06-26T12:58:21;29.20;40.61
70708;SHT30;58277;47.316;18.908;2023-06-26T13:00:44;29.18;40.11
70708;SHT30;58277;47.316;18.908;2023-06-26T13:03:06;29.35;41.11
70708;SHT30;58277;47.316;18.908;2023-06-26T13:05:33;29.55;41.92
70708;SHT30;58277;47.316;18.908;2023-06-26T13:07:55;29.50;40.41
70708;SHT30;58277;47.316;18.908;2023-06-26T13:10:19;29.50;40.74
70708;SHT30;58277;47.316;18.908;2023-06-26T13:12:41;29.35;40.65
70708;SHT30;58277;47.316;18.908;2023-06-26T13:15:04;29.35;40.94
70708;SHT30;58277;47.316;18.908;2023-06-26T13:17:28;29.06;40.64
70708;SHT30;58277;47.316;18.908;2023-06-26T13:19:50;29.10;40.44
70708;SHT30;58277;47.316;18.908;2023-06-26T13:22:13;29.15;41.46
70708;SHT30;58277;47.316;18.908;2023-06-26T13:24:36;29.38;39.48
70708;SHT30;58277;47.316;18.908;2023-06-26T13:26:59;29.65;40.11
70708;SHT30;58277;47.316;18.908;2023-06-26T13:29:21;29.82;40.76
70708;SHT30;58277;47.316;18.908;2023-06-26T13:31:45;29.69;40.61
70708;SHT30;58277;47.316;18.908;2023-06-26T13:34:07;29.85;40.42
70708;SHT30;58277;47.316;18.908;2023-06-26T13:36:30;29.95;39.73
70708;SHT30;58277;47.316;18.908;2023-06-26T13:38:57;30.06;39.12
70708;SHT30;58277;47.316;18.908;2023-06-26T13:41:19;30.23;38.77
70708;SHT30;58277;47.316;18.908;2023-06-26T13:43:43;30.33;38.50
70708;SHT30;58277;47.316;18.908;2023-06-26T13:46:06;30.27;39.52
70708;SHT30;58277;47.316;18.908;2023-06-26T13:48:29;30.36;39.42
70708;SHT30;58277;47.316;18.908;2023-06-26T13:50:52;30.07;39.86
70708;SHT30;58277;47.316;18.908;2023-06-26T13:53:16;30.18;39.56
70708;SHT30;58277;47.316;18.908;2023-06-26T13:55:40;30.14;39.01
70708;SHT30;58277;47.316;18.908;2023-06-26T13:58:04;29.54;39.54
70708;SHT30;58277;47.316;18.908;2023-06-26T14:00:28;29.59;39.89
70708;SHT30;58277;47.316;18.908;2023-06-26T14:02:51;29.80;39.46
70708;SHT30;58277;47.316;18.908;2023-06-26T14:05:14;29.83;39.28
70708;SHT30;58277;47.316;18.908;2023-06-26T14:07:37;30.07;39.11
70708;SHT30;58277;47.316;18.908;2023-06-26T14:10:00;30.28;38.72
70708;SHT30;58277;47.316;18.908;2023-06-26T14:12:23;30.31;39.05
70708;SHT30;58277;47.316;18.908;2023-06-26T14:14:47;30.26;39.34
70708;SHT30;58277;47.316;18.908;2023-06-26T14:17:10;30.34;39.17
70708;SHT30;58277;47.316;18.908;2023-06-26T14:19:38;30.14;39.19
70708;SHT30;58277;47.316;18.908;2023-06-26T14:22:03;30.12;39.73
70708;SHT30;58277;47.316;18.908;2023-06-26T14:24:26;30.28;39.61
70708;SHT30;58277;47.316;18.908;2023-06-26T14:26:50;30.47;39.90
70708;SHT30;58277;47.316;18.908;2023-06-26T14:29:13;30.18;38.53
70708;SHT30;58277;47.316;18.908;2023-06-26T14:31:39;30.14;39.01
70708;SHT30;58277;47.316;18.908;2023-06-26T14:34:02;30.05;38.89
70708;SHT30;58277;47.316;18.908;2023-06-26T14:36:25;30.24;38.01
70708;SHT30;58277;47.316;18.908;2023-06-26T14:39:10;30.34;38.39
70708;SHT30;58277;47.316;18.908;2023-06-26T14:41:53;30.45;38.48
70708;SHT30;58277;47.316;18.908;2023-06-26T14:44:17;30.58;38.09
70708;SHT30;58277;47.316;18.908;2023-06-26T14:46:40;30.65;38.70
70708;SHT30;58277;47.316;18.908;2023-06-26T14:49:03;30.68;38.48
70708;SHT30;58277;47.316;18.908;2023-06-26T14:51:25;30.61;37.36
70708;SHT30;58277;47.316;18.908;2023-06-26T14:53:49;30.45;38.09
70708;SHT30;58277;47.316;18.908;2023-06-26T14:56:11;30.38;37.93
70708;SHT30;58277;47.316;18.908;2023-06-26T14:58:34;30.30;38.53
70708;SHT30;58277;47.316;18.908;2023-06-26T15:00:57;30.20;37.81
70708;SHT30;58277;47.316;18.908;2023-06-26T15:03:19;30.16;37.89
70708;SHT30;58277;47.316;18.908;2023-06-26T15:05:42;29.58;38.68
70708;SHT30;58277;47.316;18.908;2023-06-26T15:08:05;29.65;38.67
70708;SHT30;58277;47.316;18.908;2023-06-26T15:10:28;29.82;38.45
70708;SHT30;58277;47.316;18.908;2023-06-26T15:12:53;29.92;38.68